Time;durP1;ratioP1;P1;durP2;ratioP2;P2;SDS_P1;SDS_P2;PMS_P1;PMS_P2;Temp;Humidity;BMP_temperature;BMP_pressure;BME280_temperature;BME280_humidity;BME280_pressure;Samples;Min_cycle;Max_cycle;Signal;HPM_P1;HPM_P2
2023/08/21 00:02:01;;;;;;;2.28;0.90;;;29.90;63.50;;;;;;10494929;28;20470;-34
2023/08/21 00:07:03;;;;;;;3.20;0.90;;;29.90;63.60;;;;;;10495186;28;20098;-34
2023/08/21 00:12:07;;;;;;;1.48;0.82;;;29.80;63.50;;;;;;10485502;28;20084;-36
2023/08/21 00:17:09;;;;;;;3.00;0.90;;;29.80;63.60;;;;;;10490306;28;20049;-40
2023/08/21 00:22:11;;;;;;;1.50;0.70;;;29.80;63.60;;;;;;10487850;28;20443;-38
2023/08/21 00:27:14;;;;;;;1.83;0.80;;;29.70;63.40;;;;;;10481683;28;20053;-37
2023/08/21 00:32:16;;;;;;;2.40;0.88;;;29.70;63.50;;;;;;10489002;28;20049;-38
2023/08/21 00:37:20;;;;;;;2.63;0.93;;;29.70;63.40;;;;;;10491860;28;20105;-35
2023/08/21 00:42:23;;;;;;;2.17;0.75;;;29.60;63.40;;;;;;10496999;28;20048;-44
2023/08/21 00:47:25;;;;;;;4.35;0.80;;;29.60;63.40;;;;;;10494058;28;20086;-41
2023/08/21 00:52:27;;;;;;;4.10;0.90;;;29.60;63.40;;;;;;10489191;28;20060;-34
2023/08/21 00:57:30;;;;;;;2.40;0.70;;;29.50;63.40;;;;;;10490546;28;20152;-39
2023/08/21 01:02:32;;;;;;;2.83;0.77;;;29.50;63.40;;;;;;10497405;28;20511;-39
2023/08/21 01:07:42;;;;;;;4.32;1.25;;;29.40;63.40;;;;;;10487925;28;20040;-35
2023/08/21 01:12:51;;;;;;;3.45;0.90;;;29.40;63.40;;;;;;10479775;28;20144;-37
2023/08/21 01:17:54;;;;;;;1.63;0.60;;;29.40;63.20;;;;;;10491966;28;20114;-37
2023/08/21 01:22:56;;;;;;;1.23;0.63;;;29.40;63.40;;;;;;10482105;28;20143;-42
2023/08/21 01:28:00;;;;;;;4.68;0.80;;;29.30;63.50;;;;;;10492007;28;20040;-34
2023/08/21 01:33:07;;;;;;;5.47;0.93;;;29.30;63.60;;;;;;10472137;28;20067;-35
2023/08/21 01:38:09;;;;;;;1.75;0.50;;;29.20;63.70;;;;;;10478968;28;20472;-34
2023/08/21 01:43:12;;;;;;;1.35;0.60;;;29.30;64.30;;;;;;10487257;28;20110;-34
2023/08/21 01:48:14;;;;;;;1.20;0.70;;;29.20;63.80;;;;;;10482569;28;20810;-37
2023/08/21 01:53:16;;;;;;;1.90;0.70;;;29.20;63.90;;;;;;10488435;28;20141;-34
2023/08/21 01:58:19;;;;;;;1.05;0.50;;;29.20;63.90;;;;;;10485450;28;20127;-34
2023/08/21 02:03:21;;;;;;;1.70;0.60;;;29.10;63.80;;;;;;10483821;28;20094;-35
2023/08/21 02:08:23;;;;;;;1.88;0.70;;;29.10;63.90;;;;;;10482892;28;20067;-42
2023/08/21 02:13:26;;;;;;;1.33;0.60;;;29.10;63.90;;;;;;10478395;28;20109;-34
2023/08/21 02:18:28;;;;;;;2.53;0.77;;;29.10;64.00;;;;;;10472373;28;20087;-38
2023/08/21 02:23:30;;;;;;;2.90;0.70;;;29.00;64.10;;;;;;10479627;28;20075;-36
2023/08/21 02:28:33;;;;;;;2.25;0.85;;;29.00;64.00;;;;;;10483340;28;20099;-34
2023/08/21 02:33:35;;;;;;;2.63;0.80;;;29.00;64.00;;;;;;10487934;28;20555;-35
2023/08/21 02:38:37;;;;;;;1.80;0.55;;;29.00;64.10;;;;;;10494463;28;20044;-39
2023/08/21 02:43:40;;;;;;;1.45;0.77;;;28.90;64.10;;;;;;10496217;28;20486;-34
2023/08/21 02:48:42;;;;;;;1.55;0.77;;;28.80;64.10;;;;;;10481906;28;20041;-34
2023/08/21 02:53:44;;;;;;;1.23;0.50;;;28.80;64.10;;;;;;10479035;28;20096;-39
2023/08/21 03:15:30;;;;;;;3.58;0.60;;;28.50;64.30;;;;;;10544830;27;20116;-34
2023/08/21 03:20:32;;;;;;;1.00;0.65;;;28.60;64.80;;;;;;10519723;28;20072;-33
2023/08/21 03:25:33;;;;;;;1.85;0.80;;;28.60;64.60;;;;;;10545274;28;20477;-33
2023/08/21 03:30:39;;;;;;;1.20;0.77;;;28.60;64.50;;;;;;10523585;28;20047;-33
2023/08/21 03:35:41;;;;;;;1.70;0.60;;;28.60;64.60;;;;;;10527723;28;20131;-35
2023/08/21 03:40:43;;;;;;;1.00;0.60;;;28.60;64.50;;;;;;10532076;28;20072;-34
2023/08/21 03:45:46;;;;;;;2.75;0.90;;;28.60;64.60;;;;;;10537212;28;20511;-30
2023/08/21 03:50:48;;;;;;;1.13;0.73;;;28.50;64.60;;;;;;10521624;28;20133;-33
2023/08/21 03:55:50;;;;;;;2.17;0.80;;;28.50;64.60;;;;;;10535408;28;20557;-38
2023/08/21 04:00:53;;;;;;;2.80;1.20;;;28.50;64.60;;;;;;10510390;28;20040;-36
2023/08/21 04:05:56;;;;;;;2.08;0.80;;;28.50;64.60;;;;;;10520109;28;20131;-33
2023/08/21 04:10:59;;;;;;;1.15;0.63;;;28.50;64.80;;;;;;10529788;28;20068;-31
2023/08/21 04:16:03;;;;;;;4.32;1.00;;;28.40;64.70;;;;;;10520194;28;20048;-37
2023/08/21 04:21:04;;;;;;;2.95;0.98;;;28.40;64.70;;;;;;10523047;28;20504;-38
2023/08/21 04:26:07;;;;;;;3.33;0.88;;;28.40;64.80;;;;;;10488455;28;20068;-39
2023/08/21 04:31:10;;;;;;;4.00;0.88;;;28.30;64.80;;;;;;10484808;28;20056;-35
2023/08/21 04:36:16;;;;;;;1.00;0.50;;;28.30;64.70;;;;;;10481357;28;20136;-34
2023/08/21 04:41:18;;;;;;;2.00;0.77;;;28.30;64.30;;;;;;10483832;28;20052;-33
2023/08/21 04:46:21;;;;;;;2.08;1.08;;;28.20;63.90;;;;;;10479829;28;20052;-36
2023/08/21 04:51:23;;;;;;;4.50;1.00;;;28.20;63.70;;;;;;10499110;28;20527;-37
2023/08/21 04:56:25;;;;;;;2.83;1.38;;;28.20;63.40;;;;;;10499543;28;20502;-37
2023/08/21 05:01:28;;;;;;;4.60;1.20;;;28.20;63.30;;;;;;10492844;28;20474;-40
2023/08/21 05:06:30;;;;;;;1.77;0.80;;;28.20;63.20;;;;;;10488248;28;20041;-37
2023/08/21 05:11:31;;;;;;;1.60;0.90;;;28.10;63.10;;;;;;10487145;28;20080;-36
2023/08/21 05:16:35;;;;;;;5.47;0.90;;;28.10;63.00;;;;;;10503377;28;20051;-34
2023/08/21 05:21:37;;;;;;;4.78;0.88;;;28.10;63.00;;;;;;10497028;28;20447;-39
2023/08/21 05:26:39;;;;;;;2.63;1.00;;;28.00;62.90;;;;;;10483092;28;20040;-35
2023/08/21 05:31:43;;;;;;;4.20;0.90;;;28.00;62.90;;;;;;10486251;28;20053;-39
2023/08/21 05:36:45;;;;;;;5.10;1.10;;;28.10;63.00;;;;;;10469402;28;20056;-38
2023/08/21 05:41:46;;;;;;;7.60;0.90;;;28.10;63.00;;;;;;10479479;28;20041;-40
2023/08/21 05:46:50;;;;;;;2.88;1.00;;;28.00;62.90;;;;;;10474785;28;20628;-36
2023/08/21 05:51:51;;;;;;;2.97;1.42;;;28.10;62.90;;;;;;10479008;28;20207;-38
2023/08/21 05:56:53;;;;;;;6.05;1.70;;;28.10;63.00;;;;;;10481330;28;20068;-36
2023/08/21 06:01:56;;;;;;;4.82;1.25;;;28.00;63.00;;;;;;10477947;28;20394;-35
2023/08/21 06:06:58;;;;;;;5.20;1.55;;;28.10;63.80;;;;;;10492385;28;20458;-41
2023/08/21 06:12:00;;;;;;;4.50;1.50;;;28.10;63.40;;;;;;10481508;28;20561;-35
2023/08/21 06:17:05;;;;;;;5.65;1.52;;;28.10;63.50;;;;;;10491082;28;20072;-34
2023/08/21 06:22:07;;;;;;;5.78;1.80;;;28.10;64.30;;;;;;10487961;28;20060;-30
2023/08/21 06:27:09;;;;;;;6.80;1.77;;;28.10;63.90;;;;;;10483497;28;20110;-40
2023/08/21 06:32:12;;;;;;;6.90;1.67;;;28.10;64.20;;;;;;10485565;28;20088;-34
2023/08/21 06:37:14;;;;;;;6.28;1.60;;;27.70;65.90;;;;;;10486866;28;20486;-33
2023/08/21 06:42:16;;;;;;;3.17;1.10;;;27.90;65.40;;;;;;10484384;28;20045;-35
2023/08/21 06:47:19;;;;;;;4.22;1.33;;;27.70;66.80;;;;;;10473558;28;20151;-33
2023/08/21 06:52:21;;;;;;;5.05;1.33;;;27.80;66.40;;;;;;10491093;28;20143;-34
2023/08/21 06:57:23;;;;;;;11.93;1.92;;;27.80;66.30;;;;;;10477395;28;20121;-42
2023/08/21 07:02:26;;;;;;;8.00;1.50;;;28.00;66.10;;;;;;10492640;28;20144;-38
2023/08/21 07:07:28;;;;;;;5.10;1.40;;;27.80;66.80;;;;;;10484466;28;20143;-41
2023/08/21 07:12:30;;;;;;;8.18;1.50;;;28.00;66.50;;;;;;10485371;28;20515;-41
2023/08/21 07:17:33;;;;;;;8.45;2.05;;;28.10;67.20;;;;;;10491179;28;20127;-39
2023/08/21 07:22:35;;;;;;;10.60;2.03;;;27.60;68.90;;;;;;10491664;28;20555;-38
2023/08/21 07:27:39;;;;;;;8.15;2.00;;;27.10;70.80;;;;;;10473292;28;20041;-37
2023/08/21 07:32:42;;;;;;;4.47;1.23;;;28.10;67.40;;;;;;10479180;28;20106;-39
2023/08/21 07:37:44;;;;;;;10.35;2.63;;;27.30;68.80;;;;;;10487815;28;20044;-38
2023/08/21 07:42:46;;;;;;;6.13;1.27;;;27.80;68.90;;;;;;10490863;28;20141;-42
2023/08/21 07:47:49;;;;;;;7.95;1.67;;;28.20;67.30;;;;;;10481167;28;20072;-46
2023/08/21 07:52:51;;;;;;;3.92;1.58;;;28.30;66.60;;;;;;10485012;28;20141;-46
2023/08/21 07:57:53;;;;;;;6.97;1.40;;;28.40;66.40;;;;;;10493161;28;20056;-38
2023/08/21 08:02:56;;;;;;;5.07;1.30;;;27.80;67.30;;;;;;10487785;28;20473;-40
2023/08/21 08:07:58;;;;;;;10.05;1.05;;;28.40;66.40;;;;;;10481301;28;20081;-40
2023/08/21 08:13:00;;;;;;;9.45;1.52;;;28.30;66.80;;;;;;10489198;28;20086;-45
2023/08/21 08:18:05;;;;;;;6.25;1.00;;;27.80;65.70;;;;;;10492804;28;20558;-33
2023/08/21 08:23:07;;;;;;;4.85;1.02;;;27.50;67.00;;;;;;10483181;28;20121;-37
2023/08/21 08:28:09;;;;;;;1.88;0.88;;;27.60;66.30;;;;;;10484137;28;20130;-36
2023/08/21 08:33:12;;;;;;;6.53;1.20;;;28.20;66.90;;;;;;10489265;28;20056;-34
2023/08/21 08:38:14;;;;;;;4.68;1.10;;;28.00;65.30;;;;;;10495451;28;20053;-41
2023/08/21 08:43:16;;;;;;;7.22;0.80;;;28.40;65.90;;;;;;10489484;28;20040;-34
2023/08/21 08:48:21;;;;;;;2.22;0.85;;;28.40;66.00;;;;;;10495587;28;20040;-35
2023/08/21 08:53:23;;;;;;;7.00;1.40;;;28.00;67.80;;;;;;10484946;28;20136;-39
2023/08/21 08:58:25;;;;;;;4.07;1.08;;;28.20;66.50;;;;;;10498830;28;20390;-40
2023/08/21 09:03:29;;;;;;;6.20;1.20;;;28.50;65.50;;;;;;10491657;28;20143;-36
2023/08/21 09:08:31;;;;;;;3.63;0.80;;;27.30;64.40;;;;;;10499244;28;20127;-34
2023/08/21 09:13:33;;;;;;;6.15;1.10;;;27.30;70.10;;;;;;10485597;28;20064;-37
2023/08/21 09:18:37;;;;;;;2.35;0.80;;;28.00;66.10;;;;;;10480262;28;20543;-35
2023/08/21 09:23:39;;;;;;;2.92;0.98;;;28.20;66.90;;;;;;10477154;28;20056;-35
2023/08/21 09:28:41;;;;;;;3.90;0.70;;;27.90;65.40;;;;;;10492656;28;20698;-34
2023/08/21 09:33:44;;;;;;;2.58;0.80;;;28.50;65.30;;;;;;10479617;28;20059;-35
2023/08/21 09:38:48;;;;;;;6.75;1.25;;;27.90;66.80;;;;;;10483342;28;20076;-34
2023/08/21 09:43:50;;;;;;;0.82;0.52;;;28.10;66.30;;;;;;10481367;28;20041;-33
2023/08/21 09:48:54;;;;;;;6.22;1.40;;;28.30;66.20;;;;;;10488242;28;20132;-35
2023/08/21 09:53:57;;;;;;;3.95;1.00;;;26.90;69.80;;;;;;10488411;28;20690;-36
2023/08/21 09:58:59;;;;;;;2.58;0.70;;;27.10;68.70;;;;;;10486502;28;20515;-39
2023/08/21 10:04:03;;;;;;;4.00;0.95;;;28.20;66.90;;;;;;10498982;28;20052;-38
2023/08/21 10:09:07;;;;;;;2.55;0.70;;;28.40;66.40;;;;;;10494757;28;20056;-33
2023/08/21 10:14:09;;;;;;;5.13;0.90;;;27.60;66.80;;;;;;10476189;28;20627;-34
2023/08/21 10:19:15;;;;;;;2.30;0.82;;;28.20;66.10;;;;;;10487430;28;20405;-35
2023/08/21 10:24:37;;;;;;;3.08;0.80;;;28.00;67.40;;;;;;10490463;28;20075;-33
2023/08/21 10:29:39;;;;;;;4.30;0.70;;;28.20;67.10;;;;;;10483095;28;20474;-34
2023/08/21 10:34:52;;;;;;;2.00;0.70;;;28.60;65.70;;;;;;10492613;28;20056;-37
2023/08/21 10:39:56;;;;;;;1.75;0.60;;;28.30;66.60;;;;;;10482648;28;20047;-39
2023/08/21 10:44:59;;;;;;;4.85;0.73;;;28.40;66.30;;;;;;10479468;28;20049;-33
2023/08/21 10:50:04;;;;;;;3.95;0.75;;;28.20;65.50;;;;;;10481526;28;20051;-31
2023/08/21 10:55:06;;;;;;;1.88;0.57;;;27.90;65.60;;;;;;10485028;28;20064;-37
2023/08/21 11:00:11;;;;;;;2.90;1.13;;;28.30;67.10;;;;;;10488505;28;20102;-33
2023/08/21 11:05:15;;;;;;;1.63;0.88;;;28.00;68.40;;;;;;10483034;28;20050;-37
2023/08/21 11:10:18;;;;;;;1.73;0.70;;;28.30;67.00;;;;;;10490051;28;20417;-33
2023/08/21 11:15:20;;;;;;;1.65;0.70;;;27.40;69.60;;;;;;10484551;28;20060;-40
2023/08/21 11:20:27;;;;;;;4.78;1.00;;;28.90;65.30;;;;;;10481406;28;20504;-35
2023/08/21 11:25:30;;;;;;;3.88;0.80;;;27.00;68.40;;;;;;10482757;28;20072;-36
2023/08/21 11:30:32;;;;;;;5.38;0.98;;;26.90;72.80;;;;;;10462013;28;20049;-36
2023/08/21 11:35:36;;;;;;;1.17;0.73;;;27.90;65.70;;;;;;10493782;28;20055;-38
2023/08/21 11:40:38;;;;;;;2.05;0.80;;;27.10;73.60;;;;;;10474815;28;20448;-34
2023/08/21 11:45:40;;;;;;;4.78;1.02;;;27.40;70.20;;;;;;10485954;28;20057;-36
2023/08/21 11:50:43;;;;;;;6.75;1.20;;;26.50;74.50;;;;;;10482442;28;20094;-33
2023/08/21 11:55:47;;;;;;;2.22;1.02;;;27.40;70.70;;;;;;10488849;28;20669;-33
2023/08/21 12:00:49;;;;;;;5.03;0.98;;;27.40;69.80;;;;;;10498511;28;20053;-36
2023/08/21 12:05:52;;;;;;;6.63;1.10;;;27.80;70.70;;;;;;10503505;28;20122;-38
2023/08/21 12:10:54;;;;;;;5.88;0.90;;;26.70;72.00;;;;;;10502977;28;20136;-36
2023/08/21 12:15:56;;;;;;;3.92;0.57;;;26.90;73.50;;;;;;10500032;28;20115;-37
2023/08/21 12:20:59;;;;;;;5.60;1.00;;;27.60;72.00;;;;;;10500173;28;20045;-36
2023/08/21 12:26:01;;;;;;;5.05;0.82;;;26.40;76.10;;;;;;10489981;28;20067;-32
2023/08/21 12:31:03;;;;;;;6.20;0.90;;;26.70;77.70;;;;;;10493456;28;20051;-33
2023/08/21 12:36:08;;;;;;;1.25;0.50;;;26.60;76.50;;;;;;10487878;28;20087;-35
2023/08/21 12:41:10;;;;;;;2.90;0.73;;;27.40;74.90;;;;;;10518694;28;20863;-33
2023/08/21 12:46:12;;;;;;;1.50;0.60;;;28.30;69.80;;;;;;10490941;28;20068;-34
2023/08/21 12:51:15;;;;;;;1.83;0.50;;;27.80;68.70;;;;;;10480825;28;20515;-32
2023/08/21 12:56:17;;;;;;;1.40;0.60;;;28.40;69.00;;;;;;10484315;28;20072;-34
2023/08/21 13:01:20;;;;;;;2.33;0.90;;;28.20;69.90;;;;;;10503648;28;20148;-36
2023/08/21 13:06:23;;;;;;;7.93;1.52;;;28.00;68.90;;;;;;10480228;28;20044;-39
2023/08/21 13:11:25;;;;;;;3.33;1.23;;;28.10;66.50;;;;;;10487890;28;20048;-37
2023/08/21 13:16:26;;;;;;;5.78;1.20;;;28.20;69.00;;;;;;10502822;28;20088;-37
2023/08/21 13:21:30;;;;;;;4.50;1.20;;;28.30;65.50;;;;;;10488929;28;20554;-42
2023/08/21 13:26:33;;;;;;;4.30;0.93;;;27.80;72.20;;;;;;10497698;28;20075;-38
2023/08/21 13:31:35;;;;;;;2.22;0.90;;;27.60;75.40;;;;;;10500562;28;20538;-34
2023/08/21 13:36:39;;;;;;;5.07;1.17;;;28.30;66.20;;;;;;10508792;28;20048;-37
2023/08/21 13:41:41;;;;;;;2.83;1.10;;;28.40;69.50;;;;;;10492082;28;20136;-33
2023/08/21 13:46:42;;;;;;;3.13;1.15;;;28.40;71.10;;;;;;10499172;28;20059;-37
2023/08/21 13:51:46;;;;;;;4.00;1.00;;;28.50;71.40;;;;;;10475618;28;20137;-38
2023/08/21 13:56:47;;;;;;;3.25;1.08;;;29.50;65.50;;;;;;10478556;28;20136;-36
2023/08/21 14:01:49;;;;;;;2.85;1.00;;;29.10;70.70;;;;;;10491547;28;20076;-37
2023/08/21 14:06:52;;;;;;;3.22;0.80;;;29.30;67.30;;;;;;10488374;28;20079;-39
2023/08/21 14:11:54;;;;;;;6.70;1.30;;;29.40;68.30;;;;;;10478173;28;20577;-39
2023/08/21 14:16:56;;;;;;;1.98;1.00;;;30.10;67.80;;;;;;10489085;28;20138;-33
2023/08/21 14:21:59;;;;;;;3.28;0.90;;;30.00;64.80;;;;;;10492795;28;20061;-36
2023/08/21 14:27:01;;;;;;;3.55;1.10;;;30.60;62.90;;;;;;10492898;28;20040;-38
2023/08/21 14:32:04;;;;;;;1.50;0.70;;;30.10;66.10;;;;;;10472826;28;20043;-37
2023/08/21 14:37:07;;;;;;;3.00;0.70;;;30.30;67.60;;;;;;10485157;28;20056;-37
2023/08/21 14:42:09;;;;;;;1.48;0.60;;;31.30;64.60;;;;;;10489807;28;20576;-37
2023/08/21 14:47:11;;;;;;;1.45;0.60;;;31.10;64.40;;;;;;10473160;28;20057;-34
2023/08/21 14:52:14;;;;;;;1.48;0.52;;;31.40;64.40;;;;;;10472004;28;20470;-32
2023/08/21 14:57:16;;;;;;;1.00;0.50;;;31.60;60.70;;;;;;10473734;28;20140;-35
2023/08/21 15:02:18;;;;;;;4.63;0.63;;;31.00;64.60;;;;;;10493840;28;20255;-34
2023/08/21 15:07:22;;;;;;;3.03;0.82;;;31.80;64.10;;;;;;10484168;28;20401;-38
2023/08/21 15:12:24;;;;;;;3.70;0.80;;;32.10;64.60;;;;;;10468219;28;20088;-36
2023/08/21 15:17:25;;;;;;;2.17;0.57;;;32.00;64.10;;;;;;10485989;28;20052;-38
2023/08/21 15:22:29;;;;;;;2.38;0.93;;;32.90;63.40;;;;;;10498454;28;20089;-33
2023/08/21 15:27:31;;;;;;;6.90;0.95;;;33.20;64.50;;;;;;10490558;28;20106;-31
2023/08/21 15:32:33;;;;;;;4.22;0.98;;;33.00;56.50;;;;;;10502957;28;20618;-42
2023/08/21 15:37:36;;;;;;;4.90;1.10;;;32.50;64.30;;;;;;10474046;28;20080;-36
2023/08/21 15:42:38;;;;;;;1.98;0.73;;;31.90;54.50;;;;;;10478359;28;20485;-33
2023/08/21 15:47:40;;;;;;;6.43;0.70;;;32.50;69.20;;;;;;10477970;28;20048;-36
2023/08/21 15:52:44;;;;;;;2.00;0.50;;;33.20;62.60;;;;;;10486129;28;20065;-35
2023/08/21 15:57:46;;;;;;;3.85;0.93;;;32.70;68.50;;;;;;10465891;28;20481;-30
2023/08/21 16:02:48;;;;;;;5.55;0.88;;;33.60;56.60;;;;;;10469179;28;20045;-32
2023/08/21 16:07:53;;;;;;;1.50;0.65;;;33.30;64.90;;;;;;10468993;28;20242;-36
2023/08/21 16:12:55;;;;;;;2.70;0.85;;;32.70;64.70;;;;;;10473818;28;20060;-35
2023/08/21 16:17:57;;;;;;;1.02;0.60;;;33.40;57.00;;;;;;10476086;28;20049;-36
2023/08/21 16:23:00;;;;;;;2.40;0.50;;;33.50;62.90;;;;;;10491134;28;20196;-38
2023/08/21 16:28:02;;;;;;;1.50;0.47;;;34.00;65.20;;;;;;10480862;28;20531;-32
2023/08/21 16:33:05;;;;;;;1.20;0.50;;;34.00;65.70;;;;;;10490181;28;20055;-37
2023/08/21 16:38:08;;;;;;;1.08;0.50;;;33.90;64.60;;;;;;10486518;28;20697;-36
2023/08/21 16:43:10;;;;;;;1.20;0.60;;;34.00;66.00;;;;;;10486838;28;20045;-37
2023/08/21 16:48:12;;;;;;;1.60;0.50;;;33.90;62.50;;;;;;10481440;28;20147;-32
2023/08/21 16:53:15;;;;;;;0.85;0.55;;;33.90;60.00;;;;;;10492491;28;20044;-35
2023/08/21 16:58:17;;;;;;;0.60;0.40;;;34.20;64.80;;;;;;10490366;28;20052;-31
2023/08/21 17:03:19;;;;;;;0.88;0.45;;;34.50;63.30;;;;;;10495256;28;20079;-36
2023/08/21 17:08:23;;;;;;;2.30;0.50;;;34.30;61.30;;;;;;10482364;28;20053;-39
2023/08/21 17:13:24;;;;;;;0.93;0.50;;;34.20;64.90;;;;;;10480473;28;20080;-36
2023/08/21 17:18:26;;;;;;;2.55;0.60;;;34.40;62.10;;;;;;10482589;28;20064;-31
2023/08/21 17:23:30;;;;;;;1.38;0.70;;;34.30;62.60;;;;;;10477625;28;20559;-38
2023/08/21 17:28:32;;;;;;;1.45;0.60;;;34.70;64.50;;;;;;10476868;28;20076;-41
2023/08/21 17:33:37;;;;;;;1.30;0.70;;;34.60;62.00;;;;;;10486109;28;20068;-45
2023/08/21 17:38:40;;;;;;;1.35;0.60;;;34.60;64.00;;;;;;10481336;28;20072;-36
2023/08/21 17:43:43;;;;;;;1.25;0.60;;;34.70;61.80;;;;;;10482333;28;20507;-37
2023/08/21 17:48:45;;;;;;;3.65;0.68;;;34.80;62.50;;;;;;10474126;28;20526;-41
2023/08/21 17:53:49;;;;;;;1.63;0.50;;;34.80;61.70;;;;;;10474161;28;20045;-37
2023/08/21 17:58:51;;;;;;;2.33;0.70;;;34.70;61.20;;;;;;10483755;28;20139;-38
2023/08/21 18:03:52;;;;;;;3.03;0.80;;;34.70;61.40;;;;;;10479086;28;20105;-36
2023/08/21 18:08:56;;;;;;;1.88;0.68;;;34.80;61.80;;;;;;10484776;28;20094;-38
2023/08/21 18:13:58;;;;;;;1.83;0.90;;;34.80;61.00;;;;;;10486364;28;20150;-34
2023/08/21 18:19:00;;;;;;;1.80;0.75;;;34.80;61.70;;;;;;10492219;28;20091;-35
2023/08/21 18:24:03;;;;;;;2.22;0.60;;;34.80;60.10;;;;;;10490158;28;20106;-35
2023/08/21 18:29:05;;;;;;;1.98;0.80;;;34.80;60.70;;;;;;10478640;28;20076;-34
2023/08/21 18:34:07;;;;;;;0.90;0.60;;;34.80;61.90;;;;;;10491337;28;20143;-42
2023/08/21 18:39:12;;;;;;;1.17;0.60;;;34.70;60.90;;;;;;10494874;28;20048;-36
2023/08/21 18:44:13;;;;;;;4.15;0.95;;;34.60;61.30;;;;;;10483392;28;20048;-33
2023/08/21 18:49:15;;;;;;;1.35;1.00;;;34.60;60.80;;;;;;10469311;28;20071;-36
2023/08/21 18:54:22;;;;;;;1.67;1.00;;;34.60;60.60;;;;;;10471544;28;20048;-32
2023/08/21 18:59:24;;;;;;;2.15;0.80;;;34.40;60.60;;;;;;10466890;28;20072;-39
2023/08/21 19:04:26;;;;;;;1.55;0.70;;;34.40;59.90;;;;;;10481874;28;20044;-37
2023/08/21 19:09:29;;;;;;;1.13;0.60;;;34.30;59.70;;;;;;10478968;28;20045;-36
2023/08/21 19:14:31;;;;;;;2.60;1.30;;;34.20;59.30;;;;;;10480447;28;20234;-37
2023/08/21 19:19:33;;;;;;;1.52;0.70;;;34.00;59.30;;;;;;10477703;28;20076;-33
2023/08/21 19:24:36;;;;;;;3.33;0.80;;;33.90;60.00;;;;;;10463037;28;20047;-35
2023/08/21 19:29:38;;;;;;;0.85;0.55;;;33.50;58.80;;;;;;10481494;28;20478;-35
2023/08/21 19:34:40;;;;;;;3.13;0.80;;;33.30;58.70;;;;;;10482021;28;20325;-37
2023/08/21 19:39:43;;;;;;;5.15;1.38;;;33.10;59.10;;;;;;10490499;28;20708;-40
2023/08/21 19:44:45;;;;;;;2.88;0.80;;;32.90;59.00;;;;;;10471529;28;20084;-40
2023/08/21 19:49:47;;;;;;;1.30;0.75;;;32.80;58.70;;;;;;10480421;28;20040;-39
2023/08/21 19:54:51;;;;;;;4.10;0.95;;;32.70;58.70;;;;;;10482008;28;20548;-36
2023/08/21 19:59:53;;;;;;;2.72;1.10;;;32.60;58.80;;;;;;10488311;28;20903;-38
2023/08/21 20:04:55;;;;;;;3.05;0.95;;;32.50;58.80;;;;;;10499119;28;20071;-37
2023/08/21 20:09:58;;;;;;;2.17;0.77;;;32.40;58.80;;;;;;10475891;28;20645;-40
2023/08/21 20:15:00;;;;;;;4.70;1.17;;;32.30;58.90;;;;;;10481501;28;20714;-39
2023/08/21 20:20:03;;;;;;;1.65;0.82;;;32.20;59.00;;;;;;10478268;28;20041;-38
2023/08/21 20:25:07;;;;;;;3.17;1.00;;;32.10;59.00;;;;;;10472219;28;20051;-32
2023/08/21 20:30:11;;;;;;;2.95;1.00;;;32.10;59.10;;;;;;10467712;28;20076;-34
2023/08/21 20:35:13;;;;;;;3.90;1.00;;;32.00;59.20;;;;;;10480595;28;20143;-39
2023/08/21 20:40:16;;;;;;;2.78;0.82;;;31.90;59.30;;;;;;10480855;28;20041;-35
2023/08/21 20:45:18;;;;;;;5.72;1.38;;;31.80;59.40;;;;;;10470890;28;20122;-38
2023/08/21 20:50:20;;;;;;;5.38;1.00;;;31.70;59.40;;;;;;10470468;28;20052;-36
2023/08/21 20:55:23;;;;;;;3.63;1.00;;;31.70;59.60;;;;;;10482611;28;20079;-32
2023/08/21 21:00:25;;;;;;;5.35;1.50;;;31.70;59.70;;;;;;10496835;28;20047;-39
2023/08/21 21:05:27;;;;;;;2.83;1.00;;;31.60;59.80;;;;;;10482751;28;20093;-36
2023/08/21 21:10:30;;;;;;;4.15;1.00;;;31.50;59.80;;;;;;10504400;28;20136;-38
2023/08/21 21:15:32;;;;;;;2.70;1.23;;;31.50;60.00;;;;;;10484327;28;20141;-34
2023/08/21 21:20:35;;;;;;;4.72;0.85;;;31.40;60.20;;;;;;10491867;28;20128;-35
2023/08/21 21:25:38;;;;;;;2.45;1.30;;;31.40;60.20;;;;;;10482176;28;20045;-33
2023/08/21 21:30:41;;;;;;;2.40;1.30;;;31.30;60.40;;;;;;10485455;28;20055;-36
2023/08/21 21:35:42;;;;;;;1.67;0.90;;;31.30;60.50;;;;;;10485615;28;20135;-33
2023/08/21 21:40:46;;;;;;;1.77;1.10;;;31.20;60.60;;;;;;10490525;28;20094;-32
2023/08/21 21:45:56;;;;;;;2.25;1.00;;;31.20;60.70;;;;;;10484223;28;20129;-37
2023/08/21 21:50:58;;;;;;;2.13;1.00;;;31.20;60.80;;;;;;10492491;28;20052;-32
2023/08/21 21:56:04;;;;;;;2.28;1.50;;;31.10;60.80;;;;;;10472416;28;20143;-39
2023/08/21 22:01:05;;;;;;;3.50;1.15;;;31.10;60.90;;;;;;10481824;28;20058;-32
2023/08/21 22:06:08;;;;;;;1.70;1.02;;;31.00;61.00;;;;;;10488577;28;20094;-40
2023/08/21 22:11:12;;;;;;;2.63;1.25;;;31.00;61.10;;;;;;10472109;28;20048;-40
2023/08/21 22:16:15;;;;;;;2.22;1.20;;;30.90;61.10;;;;;;10475746;28;20048;-38
2023/08/21 22:21:17;;;;;;;2.50;1.13;;;30.80;61.10;;;;;;10485904;28;20072;-35
2023/08/21 22:26:20;;;;;;;3.80;1.15;;;30.80;61.20;;;;;;10484865;28;20040;-34
2023/08/21 22:31:22;;;;;;;2.35;1.33;;;30.80;61.30;;;;;;10475032;28;20801;-35
2023/08/21 22:36:24;;;;;;;2.97;1.38;;;30.70;61.30;;;;;;10480425;28;20072;-35
2023/08/21 22:41:27;;;;;;;1.92;1.15;;;30.70;61.50;;;;;;10469721;28;20104;-35
2023/08/21 22:46:29;;;;;;;1.92;1.20;;;30.60;61.50;;;;;;10491742;28;20508;-33
2023/08/21 22:51:30;;;;;;;1.65;0.93;;;30.60;61.70;;;;;;10488663;28;20099;-32
2023/08/21 22:56:34;;;;;;;2.25;1.15;;;30.50;61.60;;;;;;10486616;28;20422;-33
2023/08/21 23:01:35;;;;;;;1.73;1.10;;;30.50;61.70;;;;;;10500386;28;20041;-37
2023/08/21 23:06:38;;;;;;;2.28;0.90;;;30.50;61.70;;;;;;10491616;28;20387;-32
2023/08/21 23:11:41;;;;;;;2.10;1.05;;;30.40;61.80;;;;;;10480705;28;20040;-31
2023/08/21 23:16:43;;;;;;;2.05;1.10;;;30.40;62.50;;;;;;10484450;28;20056;-32
2023/08/21 23:21:45;;;;;;;2.28;1.05;;;30.40;62.00;;;;;;10487154;28;20390;-36
2023/08/21 23:26:48;;;;;;;2.22;1.20;;;30.30;62.00;;;;;;10492196;28;20093;-32
2023/08/21 23:31:50;;;;;;;1.58;1.10;;;30.20;62.00;;;;;;10485147;28;20122;-34
2023/08/21 23:36:52;;;;;;;1.08;0.80;;;30.20;62.20;;;;;;10489524;28;20532;-33
2023/08/21 23:41:55;;;;;;;1.25;0.93;;;30.20;62.20;;;;;;10465690;28;20037;-36
2023/08/21 23:46:57;;;;;;;1.63;0.98;;;30.10;62.30;;;;;;10474845;28;20612;-33
2023/08/21 23:51:59;;;;;;;1.02;0.70;;;30.10;62.40;;;;;;10491296;28;20123;-37
2023/08/21 23:57:02;;;;;;;2.13;1.00;;;30.10;62.40;;;;;;10487733;28;20105;-32
